Time;durP1;ratioP1;P1;durP2;ratioP2;P2;SDS_P1;SDS_P2;PMS_P1;PMS_P2;Temp;Humidity;BMP_temperature;BMP_pressure;BME280_temperature;BME280_humidity;BME280_pressure;Samples;Min_cycle;Max_cycle;Signal;HPM_P1;HPM_P2
2021/06/12 00:02:11;;;;;;;;;5.25;5.25;;;;;25.12;51.11;101572.00;5119678;27;47298;-47
2021/06/12 00:04:37;;;;;;;;;4.00;4.00;;;;;25.06;51.06;101575.16;5100140;27;46007;-45
2021/06/12 00:07:03;;;;;;;;;3.00;3.00;;;;;25.03;50.89;101567.19;5102666;27;45814;-48
2021/06/12 00:09:28;;;;;;;;;3.00;3.00;;;;;24.98;50.71;101570.19;5101866;27;45371;-45
2021/06/12 00:11:54;;;;;;;;;4.00;4.00;;;;;24.90;50.54;101569.84;5097950;27;47059;-47
2021/06/12 00:14:20;;;;;;;;;3.33;3.00;;;;;24.79;50.71;101567.88;5111668;27;45349;-45
2021/06/12 00:16:45;;;;;;;;;2.33;2.33;;;;;24.74;50.58;101582.72;5098801;27;45438;-48
2021/06/12 00:19:11;;;;;;;;;3.00;3.00;;;;;24.70;50.56;101578.47;5099369;27;45676;-47
2021/06/12 00:21:37;;;;;;;;;3.00;3.00;;;;;24.69;50.55;101582.16;5100909;27;48548;-48
2021/06/12 00:24:07;;;;;;;;;3.00;3.00;;;;;24.66;50.42;101580.53;5100030;27;45296;-50
2021/06/12 00:26:33;;;;;;;;;4.33;4.33;;;;;24.62;50.53;101576.25;5098880;27;45314;-48
2021/06/12 00:28:59;;;;;;;;;8.75;8.75;;;;;24.64;50.57;101585.16;5099430;27;45379;-46
2021/06/12 00:31:25;;;;;;;;;8.75;8.00;;;;;24.64;50.93;101577.03;5098849;27;47070;-46
2021/06/12 00:33:50;;;;;;;;;9.25;7.75;;;;;24.65;50.82;101590.53;5102169;27;45356;-46
2021/06/12 00:36:16;;;;;;;;;7.25;7.00;;;;;24.65;50.81;101590.53;5109609;27;45606;-45
2021/06/12 00:38:41;;;;;;;;;5.25;5.25;;;;;24.65;50.93;101589.66;5099989;27;45360;-49
2021/06/12 00:41:08;;;;;;;;;5.00;5.00;;;;;24.67;51.02;101589.56;5098250;27;47362;-46
2021/06/12 00:43:34;;;;;;;;;4.00;4.00;;;;;24.69;50.82;101585.75;5098867;27;45828;-45
2021/06/12 00:46:00;;;;;;;;;3.00;3.00;;;;;24.71;50.69;101591.06;5102304;27;45331;-47
2021/06/12 00:48:27;;;;;;;;;3.33;2.67;;;;;24.75;50.82;101589.88;5104664;27;45499;-45
2021/06/12 00:50:54;;;;;;;;;3.50;3.50;;;;;24.78;50.59;101589.72;5098236;27;47492;-46
2021/06/12 00:53:36;;;;;;;;;3.00;3.00;;;;;24.80;50.42;101588.63;5100316;27;45799;-47
2021/06/12 00:56:03;;;;;;;;;2.67;1.67;;;;;24.80;50.63;101596.75;5103595;27;45506;-45
2021/06/12 00:58:30;;;;;;;;;2.25;2.25;;;;;24.82;50.04;101583.94;5113584;27;45327;-46
2021/06/12 01:00:56;;;;;;;;;0.00;0.00;;;;;24.81;49.64;101593.06;5115073;27;47319;-47
2021/06/12 01:03:24;;;;;;;;;2.00;2.00;;;;;24.78;50.01;101589.72;5116683;27;45314;-46
2021/06/12 01:05:49;;;;;;;;;1.67;1.67;;;;;24.75;49.80;101588.03;5111068;27;45415;-46
2021/06/12 01:08:15;;;;;;;;;2.00;2.00;;;;;24.73;49.63;101581.84;5098660;27;45271;-49
2021/06/12 01:10:40;;;;;;;;;2.00;2.00;;;;;24.72;49.84;101585.53;5096780;27;47136;-48
2021/06/12 01:13:06;;;;;;;;;0.33;0.33;;;;;24.69;49.52;101584.88;5107520;27;45641;-47
2021/06/12 01:15:56;;;;;;;;;1.33;1.33;;;;;24.66;49.46;101577.81;5107430;27;45658;-45
2021/06/12 01:18:25;;;;;;;;;1.00;1.00;;;;;24.67;49.78;101567.84;5107960;27;45564;-46
2021/06/12 01:21:03;;;;;;;;;1.33;0.67;;;;;24.65;49.43;101566.09;5105417;27;48183;-43
2021/06/12 01:23:49;;;;;;;;;2.00;2.00;;;;;24.64;49.39;101568.88;5118879;27;45314;-44
2021/06/12 01:26:48;;;;;;;;;1.67;1.67;;;;;24.63;49.61;101568.03;5118806;27;45607;-47
2021/06/12 01:29:32;;;;;;;;;3.00;1.00;;;;;24.63;49.26;101570.72;5106874;27;45571;-49
2021/06/12 01:32:01;;;;;;;;;2.33;1.00;;;;;24.60;49.21;101573.66;5098178;27;48152;-47
2021/06/12 01:34:29;;;;;;;;;1.00;1.00;;;;;24.57;49.15;101578.44;5111796;27;45856;-45
2021/06/12 01:36:57;;;;;;;;;1.00;1.00;;;;;24.53;49.52;101576.91;5117873;27;45383;-49
2021/06/12 01:39:26;;;;;;;;;1.33;1.33;;;;;24.52;49.40;101580.56;5106127;27;45410;-47
2021/06/12 01:41:57;;;;;;;;;0.00;0.00;;;;;24.52;49.55;101575.13;5116746;27;48359;-49
2021/06/12 01:44:23;;;;;;;;;1.00;1.00;;;;;24.48;49.03;101579.03;5100323;27;45630;-47
2021/06/12 01:46:51;;;;;;;;;1.00;1.00;;;;;24.41;49.22;101580.44;5102966;27;45705;-49
2021/06/12 01:49:18;;;;;;;;;1.00;1.00;;;;;24.36;49.37;101587.00;5112451;27;45323;-49
2021/06/12 01:51:45;;;;;;;;;2.67;1.33;;;;;24.34;49.48;101569.09;5125706;27;46155;-49
2021/06/12 01:54:13;;;;;;;;;2.00;2.00;;;;;24.32;49.41;101571.03;5099082;27;45961;-47
2021/06/12 01:56:40;;;;;;;;;1.33;1.33;;;;;24.28;49.52;101574.91;5100967;27;45413;-45
2021/06/12 01:59:05;;;;;;;;;3.00;2.00;;;;;24.27;49.67;101573.16;5108606;27;45504;-50
2021/06/12 02:01:33;;;;;;;;;0.67;0.67;;;;;24.25;49.80;101575.94;5128243;27;46156;-45
2021/06/12 02:04:01;;;;;;;;;1.00;1.00;;;;;24.24;49.89;101573.34;5108064;27;45823;-45
2021/06/12 02:06:29;;;;;;;;;1.00;1.00;;;;;24.24;49.53;101576.06;5110469;27;45395;-44
2021/06/12 02:08:55;;;;;;;;;1.33;1.33;;;;;24.23;49.65;101583.31;5106546;27;45620;-46
2021/06/12 02:11:22;;;;;;;;;0.67;0.67;;;;;24.23;49.71;101590.59;5112715;27;46299;-44
2021/06/12 02:13:48;;;;;;;;;1.00;1.00;;;;;24.24;49.79;101581.47;5105169;27;45923;-45
2021/06/12 02:16:16;;;;;;;;;1.67;1.67;;;;;24.24;49.57;101586.91;5121353;27;45414;-48
2021/06/12 02:18:45;;;;;;;;;1.33;1.00;;;;;24.24;49.38;101592.31;5121221;27;45516;-45
2021/06/12 02:21:13;;;;;;;;;1.00;1.00;;;;;24.24;49.29;101601.34;5121613;27;48172;-48
2021/06/12 02:23:39;;;;;;;;;0.67;0.67;;;;;24.23;49.68;101598.72;5121575;27;45727;-44
2021/06/12 02:26:06;;;;;;;;;0.67;0.67;;;;;24.22;49.59;101592.44;5121681;27;45425;-44
2021/06/12 02:28:34;;;;;;;;;1.67;1.67;;;;;24.23;49.62;101594.16;5112820;27;45526;-45
2021/06/12 02:31:09;;;;;;;;;3.33;1.33;;;;;24.26;49.41;101609.38;5100693;27;47424;-45
2021/06/12 02:33:38;;;;;;;;;1.33;1.33;;;;;24.28;49.43;101604.75;5107848;27;45315;-43
2021/06/12 02:36:04;;;;;;;;;0.67;0.67;;;;;24.28;49.55;101610.16;5118559;27;45412;-47
2021/06/12 02:38:30;;;;;;;;;0.00;0.00;;;;;24.27;49.26;101612.00;5115667;27;45444;-43
2021/06/12 02:40:58;;;;;;;;;3.33;2.00;;;;;24.28;49.48;101610.16;5098124;27;48584;-44
2021/06/12 02:43:23;;;;;;;;;1.00;1.00;;;;;24.27;49.41;101609.31;5079818;27;45451;-45
2021/06/12 02:45:49;;;;;;;;;2.00;2.00;;;;;24.20;49.21;101605.22;5084795;27;45288;-46
2021/06/12 02:48:17;;;;;;;;;1.67;1.67;;;;;24.18;49.41;101611.72;5088828;27;45405;-46
2021/06/12 02:50:45;;;;;;;;;1.33;1.33;;;;;24.16;49.21;101600.97;5090419;27;47296;-48
2021/06/12 02:53:13;;;;;;;;;1.00;1.00;;;;;24.12;49.29;101606.69;5085323;27;45574;-45
2021/06/12 02:55:46;;;;;;;;;1.67;1.67;;;;;24.08;49.57;101603.31;5090077;27;45317;-44
2021/06/12 02:58:14;;;;;;;;;1.00;1.00;;;;;24.05;49.55;101604.38;5095063;27;45531;-45
2021/06/12 03:00:42;;;;;;;;;1.50;1.50;;;;;24.04;49.63;101593.63;5079681;28;48174;-44
2021/06/12 03:03:08;;;;;;;;;2.00;2.00;;;;;23.98;49.62;101588.59;5085324;27;46029;-44
2021/06/12 03:05:40;;;;;;;;;0.67;0.67;;;;;23.93;49.54;101583.47;5100371;27;45678;-47
2021/06/12 03:08:07;;;;;;;;;1.33;1.00;;;;;23.88;49.81;101598.28;5098793;27;45389;-44
2021/06/12 03:10:35;;;;;;;;;1.00;1.00;;;;;23.85;49.72;101587.63;5085966;27;47812;-46
2021/06/12 03:13:02;;;;;;;;;3.00;1.67;;;;;23.83;49.87;101589.56;5094336;27;45839;-45
2021/06/12 03:15:30;;;;;;;;;1.33;1.33;;;;;23.83;49.99;101601.28;5083934;27;45757;-49
2021/06/12 03:17:56;;;;;;;;;1.00;1.00;;;;;23.83;49.75;101597.69;5088699;27;45543;-47
2021/06/12 03:20:23;;;;;;;;;1.00;1.00;;;;;23.82;49.85;101599.53;5089826;27;47102;-46
2021/06/12 03:22:51;;;;;;;;;0.00;0.00;;;;;23.79;49.75;101599.75;5086697;27;45423;-50
2021/06/12 03:25:21;;;;;;;;;0.00;0.00;;;;;23.70;49.17;101593.06;5093765;27;46673;-45
2021/06/12 03:27:47;;;;;;;;;0.67;0.67;;;;;23.67;49.78;101597.81;5090651;27;45222;-45
2021/06/12 03:30:14;;;;;;;;;0.33;0.33;;;;;23.63;49.73;101597.13;5079497;27;45427;-46
2021/06/12 03:32:40;;;;;;;;;1.00;1.00;;;;;23.62;49.96;101600.78;5078348;28;45861;-49
2021/06/12 03:35:08;;;;;;;;;0.00;0.00;;;;;23.63;49.81;101607.97;5078473;28;45444;-45
2021/06/12 03:37:34;;;;;;;;;1.33;0.67;;;;;23.61;49.85;101596.31;5092765;27;45416;-45
2021/06/12 03:40:01;;;;;;;;;1.00;1.00;;;;;23.59;49.44;101606.41;5098196;27;48105;-46
2021/06/12 03:42:27;;;;;;;;;0.67;0.67;;;;;23.57;49.66;101600.16;5122423;27;45526;-47
2021/06/12 03:44:55;;;;;;;;;1.00;1.00;;;;;23.55;49.84;101602.13;5126366;27;45267;-47
2021/06/12 03:47:23;;;;;;;;;1.33;1.00;;;;;23.55;50.20;101598.53;5100036;27;45899;-47
2021/06/12 03:49:51;;;;;;;;;0.33;0.33;;;;;23.53;50.13;101600.47;5112694;27;48366;-47
2021/06/12 03:52:19;;;;;;;;;0.00;0.00;;;;;23.53;50.05;101604.06;5099488;27;45352;-46
2021/06/12 03:54:45;;;;;;;;;1.33;0.00;;;;;23.54;50.49;101608.50;5103186;27;45372;-49
2021/06/12 03:57:11;;;;;;;;;1.00;1.00;;;;;23.54;50.04;101611.22;5113345;27;45519;-48
2021/06/12 03:59:36;;;;;;;;;1.67;0.67;;;;;23.55;50.43;101617.50;5102615;27;47411;-45
2021/06/12 04:02:02;;;;;;;;;0.67;0.67;;;;;23.56;49.86;101622.81;5114437;27;45427;-50
2021/06/12 04:04:28;;;;;;;;;2.00;1.00;;;;;23.53;50.02;101624.84;5113715;27;45468;-44
2021/06/12 04:06:54;;;;;;;;;1.00;1.00;;;;;23.49;50.15;101619.59;5106365;27;45588;-47
2021/06/12 04:09:19;;;;;;;;;0.67;0.67;;;;;23.48;49.87;101622.41;5110555;27;48274;-47
2021/06/12 04:11:45;;;;;;;;;1.00;1.00;;;;;23.47;50.40;101626.94;5112724;27;45679;-50
2021/06/12 04:14:10;;;;;;;;;2.00;2.00;;;;;23.48;50.62;101627.81;5106766;27;45757;-47
2021/06/12 04:16:38;;;;;;;;;2.00;2.00;;;;;23.50;50.31;101625.88;5111831;27;45447;-51
2021/06/12 04:19:03;;;;;;;;;0.67;0.67;;;;;23.49;50.05;101616.88;5107574;27;47247;-46
2021/06/12 04:21:29;;;;;;;;;2.00;2.00;;;;;23.47;50.16;101620.66;5115902;27;45873;-47
2021/06/12 04:23:55;;;;;;;;;3.00;1.67;;;;;23.42;50.38;101622.78;5114773;27;45425;-48
2021/06/12 04:26:20;;;;;;;;;3.67;2.00;;;;;23.38;50.42;101615.84;5119686;27;45505;-47
2021/06/12 04:28:45;;;;;;;;;0.67;0.67;;;;;23.36;50.20;101620.44;5101976;27;47331;-47
2021/06/12 04:31:11;;;;;;;;;0.67;0.67;;;;;23.36;50.61;101623.16;5102647;27;45908;-45
2021/06/12 04:33:37;;;;;;;;;1.00;1.00;;;;;23.37;50.66;101623.06;5119913;27;45650;-45
2021/06/12 04:36:04;;;;;;;;;2.00;2.00;;;;;23.39;50.50;101625.69;5113802;27;45470;-45
2021/06/12 04:38:29;;;;;;;;;1.00;1.00;;;;;23.39;50.63;101625.69;5110489;27;47327;-44
2021/06/12 04:40:55;;;;;;;;;1.00;1.00;;;;;23.40;50.49;101631.03;5118878;27;45359;-44
2021/06/12 04:43:21;;;;;;;;;1.00;1.00;;;;;23.40;50.59;101627.44;5119532;27;45287;-45
2021/06/12 04:45:46;;;;;;;;;1.33;1.33;;;;;23.38;50.88;101634.78;5111834;27;45291;-45
2021/06/12 04:48:12;;;;;;;;;0.67;0.67;;;;;23.36;50.67;101626.72;5106858;27;46782;-46
2021/06/12 04:50:39;;;;;;;;;2.00;2.00;;;;;23.34;50.25;101623.25;5100206;27;45737;-47
2021/06/12 04:53:07;;;;;;;;;1.00;1.00;;;;;23.30;50.69;101626.25;5113537;27;45758;-45
2021/06/12 04:55:33;;;;;;;;;1.33;1.33;;;;;23.28;50.83;101629.06;5111010;27;45547;-46
2021/06/12 04:57:58;;;;;;;;;2.00;2.00;;;;;23.25;50.49;101633.75;5106081;27;47168;-44
2021/06/12 05:00:24;;;;;;;;;2.67;2.67;;;;;23.23;50.85;101635.69;5103702;27;46157;-45
2021/06/12 05:02:49;;;;;;;;;3.67;3.00;;;;;23.18;51.19;101636.84;5104917;27;45463;-45
2021/06/12 05:05:15;;;;;;;;;2.00;2.00;;;;;23.13;51.07;101633.56;5119443;27;45458;-44
2021/06/12 05:07:40;;;;;;;;;2.00;2.00;;;;;23.11;51.14;101634.59;5113330;27;48041;-46
2021/06/12 05:10:08;;;;;;;;;1.33;1.33;;;;;23.06;51.06;101634.88;5118521;27;45305;-46
2021/06/12 05:12:34;;;;;;;;;3.00;3.00;;;;;23.00;50.79;101639.78;5117950;27;45399;-45
2021/06/12 05:15:01;;;;;;;;;2.00;2.00;;;;;22.97;51.35;101643.53;5106680;27;45525;-47
2021/06/12 05:17:28;;;;;;;;;2.00;2.00;;;;;22.94;51.58;101632.03;5114783;27;46913;-46
2021/06/12 05:19:54;;;;;;;;;2.00;2.00;;;;;22.92;51.22;101637.53;5118669;27;45289;-45
2021/06/12 05:22:21;;;;;;;;;2.33;2.33;;;;;22.90;51.80;101637.63;5114134;27;45537;-45
2021/06/12 05:24:47;;;;;;;;;2.00;2.00;;;;;22.93;51.92;101635.69;5098733;27;45667;-44
2021/06/12 05:27:12;;;;;;;;;2.00;2.00;;;;;22.89;51.47;101630.47;5098083;27;47345;-46
2021/06/12 05:29:38;;;;;;;;;2.00;2.00;;;;;22.89;51.26;101630.47;5100970;27;45360;-46
2021/06/12 05:32:04;;;;;;;;;2.00;2.00;;;;;22.88;51.85;101623.31;5102120;27;45385;-45
2021/06/12 05:34:29;;;;;;;;;2.33;2.33;;;;;22.88;51.19;101623.31;5102147;27;45527;-45
2021/06/12 05:36:55;;;;;;;;;1.67;1.67;;;;;22.86;51.43;101625.22;5108189;27;47082;-46
2021/06/12 05:39:20;;;;;;;;;2.00;2.00;;;;;22.84;51.80;101629.84;5108141;27;45475;-45
2021/06/12 05:41:46;;;;;;;;;2.33;2.33;;;;;22.83;51.06;101630.81;5120708;27;45517;-47
2021/06/12 05:44:11;;;;;;;;;2.00;2.00;;;;;22.81;51.53;101629.13;5119517;27;45329;-46
2021/06/12 05:46:37;;;;;;;;;3.33;3.33;;;;;22.81;52.00;101630.00;5106107;27;48137;-46
2021/06/12 05:49:02;;;;;;;;;2.00;2.00;;;;;22.83;51.71;101635.34;5103874;27;45312;-45
2021/06/12 05:51:28;;;;;;;;;3.00;2.33;;;;;22.83;51.85;101632.66;5127536;27;45393;-44
2021/06/12 05:53:54;;;;;;;;;2.67;2.00;;;;;22.88;51.59;101641.38;5112910;27;45607;-47
2021/06/12 05:56:20;;;;;;;;;3.00;2.67;;;;;22.93;52.11;101644.69;5113962;27;48167;-46
2021/06/12 05:58:45;;;;;;;;;1.67;1.67;;;;;22.98;51.99;101639.84;5108351;27;45788;-44
2021/06/12 06:01:12;;;;;;;;;1.67;1.67;;;;;23.04;51.91;101638.63;5128943;27;45407;-47
2021/06/12 06:03:37;;;;;;;;;2.33;2.33;;;;;;;;5109135;27;45713;-50
2021/06/12 06:06:03;;;;;;;;;2.67;2.67;;;;;23.11;51.33;101649.00;5116306;27;47136;-46
2021/06/12 06:08:29;;;;;;;;;3.00;3.00;;;;;23.14;51.29;101642.56;5107720;27;45788;-45
2021/06/12 06:10:54;;;;;;;;;3.00;3.00;;;;;23.18;51.28;101646.81;5112378;27;45387;-43
2021/06/12 06:13:20;;;;;;;;;2.33;2.33;;;;;23.21;51.55;101646.63;5110184;27;45643;-48
2021/06/12 06:15:45;;;;;;;;;2.67;2.67;;;;;23.24;51.16;101649.13;5110532;27;47720;-43
2021/06/12 06:18:11;;;;;;;;;2.67;2.67;;;;;23.26;51.33;101649.94;5102315;27;45645;-46
2021/06/12 06:20:36;;;;;;;;;3.00;2.00;;;;;23.28;51.56;101648.00;5112790;27;45703;-47
2021/06/12 06:23:02;;;;;;;;;4.00;4.00;;;;;23.32;51.43;101648.69;5114886;27;45338;-46
2021/06/12 06:25:27;;;;;;;;;9.00;8.33;;;;;23.35;51.21;101654.78;5109928;27;48268;-45
2021/06/12 06:27:53;;;;;;;;;3.00;3.00;;;;;23.36;51.19;101647.53;5104937;27;45473;-45
2021/06/12 06:30:18;;;;;;;;;4.67;4.67;;;;;23.33;51.04;101647.72;5116256;27;45612;-49
2021/06/12 06:32:44;;;;;;;;;2.00;2.00;;;;;23.31;51.14;101661.38;5107744;27;45467;-48
2021/06/12 06:35:12;;;;;;;;;2.00;2.00;;;;;23.34;51.01;101660.31;5113842;27;47052;-47
2021/06/12 06:37:38;;;;;;;;;2.33;2.33;;;;;23.35;50.75;101653.91;5108601;27;45883;-46
2021/06/12 06:40:04;;;;;;;;;2.00;2.00;;;;;23.36;50.86;101661.06;5112667;27;45780;-46
2021/06/12 06:42:30;;;;;;;;;3.00;3.00;;;;;23.39;51.01;101663.63;5100124;27;45543;-47
2021/06/12 06:44:55;;;;;;;;;3.00;3.00;;;;;23.43;50.91;101673.31;5110045;27;46982;-44
2021/06/12 06:47:21;;;;;;;;;3.33;2.00;;;;;23.42;50.83;101671.56;5102064;27;46066;-46
2021/06/12 06:49:46;;;;;;;;;4.67;4.67;;;;;23.40;51.26;101676.19;5113850;27;45575;-44
2021/06/12 06:52:12;;;;;;;;;5.33;4.67;;;;;23.41;50.97;101670.69;5112975;27;45422;-48
2021/06/12 06:54:37;;;;;;;;;5.00;5.00;;;;;23.40;51.03;101670.78;5110747;27;48365;-45
2021/06/12 06:57:03;;;;;;;;;2.00;2.00;;;;;23.38;50.70;101679.00;5104298;27;46011;-43
2021/06/12 06:59:30;;;;;;;;;3.00;3.00;;;;;23.38;50.99;101680.84;5106867;27;45779;-47
2021/06/12 07:01:56;;;;;;;;;3.33;3.33;;;;;23.38;51.02;101670.00;5116029;27;45736;-47
2021/06/12 07:04:21;;;;;;;;;4.00;4.00;;;;;23.38;51.04;101676.31;5110556;27;47080;-44
2021/06/12 07:06:47;;;;;;;;;2.67;2.67;;;;;23.39;51.53;101678.03;5107212;27;45717;-44
2021/06/12 07:09:12;;;;;;;;;2.67;2.67;;;;;23.42;51.41;101683.25;5106329;27;45325;-47
2021/06/12 07:11:38;;;;;;;;;3.00;3.00;;;;;23.45;51.20;101672.25;5105572;27;45395;-44
2021/06/12 07:14:03;;;;;;;;;4.67;4.67;;;;;23.47;50.88;101683.84;5113267;27;47187;-45
2021/06/12 07:16:29;;;;;;;;;5.00;3.00;;;;;23.52;51.24;101688.13;5099679;27;45399;-45
2021/06/12 07:18:54;;;;;;;;;3.00;3.00;;;;;23.54;50.99;101687.06;5108468;27;45431;-44
2021/06/12 07:21:20;;;;;;;;;2.33;2.33;;;;;23.56;51.04;101687.84;5100718;27;45518;-49
2021/06/12 07:23:45;;;;;;;;;3.00;3.00;;;;;23.56;50.44;101695.09;5100779;27;45525;-45
2021/06/12 07:26:11;;;;;;;;;2.67;2.67;;;;;23.55;50.49;101693.38;5126723;27;45620;-44
2021/06/12 07:28:36;;;;;;;;;3.33;3.33;;;;;23.55;51.00;101694.22;5107595;27;45410;-46
2021/06/12 07:31:02;;;;;;;;;2.00;2.00;;;;;23.56;50.78;101712.25;5104155;27;45310;-44
2021/06/12 07:33:27;;;;;;;;;4.00;4.00;;;;;23.56;50.61;101712.25;5113690;27;47531;-45
2021/06/12 07:35:53;;;;;;;;;4.00;3.00;;;;;23.54;50.93;101710.59;5100383;27;45383;-46
2021/06/12 07:38:19;;;;;;;;;5.67;4.67;;;;;23.55;50.75;101720.47;5113050;27;45468;-45
2021/06/12 07:40:44;;;;;;;;;4.00;4.00;;;;;23.54;51.07;101724.13;5107593;27;45433;-45
2021/06/12 07:43:10;;;;;;;;;4.00;4.00;;;;;23.53;50.85;101728.69;5106042;27;47104;-44
2021/06/12 07:45:36;;;;;;;;;4.33;4.33;;;;;23.54;50.81;101732.25;5109270;27;45366;-44
2021/06/12 07:48:02;;;;;;;;;5.00;3.67;;;;;23.54;51.09;101743.09;5104911;27;45644;-47
2021/06/12 07:50:28;;;;;;;;;4.00;3.67;;;;;23.57;51.17;101740.19;5110127;27;45556;-44
2021/06/12 07:52:53;;;;;;;;;3.67;3.67;;;;;23.58;50.80;101745.56;5111525;27;45598;-46
2021/06/12 07:55:19;;;;;;;;;7.00;5.67;;;;;23.59;50.74;101736.47;5112987;27;45984;-44
2021/06/12 07:57:45;;;;;;;;;3.33;2.67;;;;;23.60;50.60;101745.47;5112656;27;45547;-45
2021/06/12 08:00:11;;;;;;;;;3.00;3.00;;;;;23.58;50.70;101731.13;5109901;27;45399;-45
2021/06/12 08:02:37;;;;;;;;;4.00;4.00;;;;;23.57;51.14;101741.06;5104429;27;47262;-46
2021/06/12 08:05:04;;;;;;;;;3.33;3.33;;;;;23.60;50.98;101742.75;5098113;27;45844;-44
2021/06/12 08:07:29;;;;;;;;;7.00;7.00;;;;;23.61;50.88;101744.50;5101060;27;45906;-48
2021/06/12 08:09:55;;;;;;;;;6.67;6.67;;;;;23.63;50.67;101750.69;5107126;27;45320;-46
2021/06/12 08:12:21;;;;;;;;;3.33;3.00;;;;;23.64;50.41;101749.75;5098940;27;48644;-46
2021/06/12 08:14:48;;;;;;;;;3.33;3.33;;;;;23.64;50.95;101749.75;5107565;27;45518;-45
2021/06/12 08:17:14;;;;;;;;;4.33;3.33;;;;;23.65;50.47;101755.09;5115119;27;45480;-46
2021/06/12 08:19:39;;;;;;;;;5.67;4.67;;;;;23.66;50.11;101762.25;5114216;27;45681;-45
2021/06/12 08:22:05;;;;;;;;;7.00;6.00;;;;;23.70;50.79;101761.09;5104235;27;48377;-44
2021/06/12 08:24:31;;;;;;;;;4.33;4.33;;;;;23.72;50.45;101763.69;5110662;27;45313;-44
2021/06/12 08:26:57;;;;;;;;;5.00;5.00;;;;;23.75;50.66;101747.25;5102416;27;45779;-48
2021/06/12 08:29:23;;;;;;;;;6.00;5.00;;;;;23.78;50.57;101745.25;5106511;27;46999;-50
2021/06/12 08:31:48;;;;;;;;;6.33;5.33;;;;;23.76;50.28;101749.91;5106267;27;46940;-46
2021/06/12 08:34:14;;;;;;;;;6.33;5.00;;;;;23.70;50.12;101750.25;5107526;27;45320;-45
2021/06/12 08:36:39;;;;;;;;;6.00;6.00;;;;;23.68;50.17;101754.03;5112173;27;45579;-45
2021/06/12 08:39:05;;;;;;;;;6.00;6.00;;;;;23.66;50.48;101750.53;5108679;27;45512;-48
2021/06/12 08:41:31;;;;;;;;;9.67;7.00;;;;;23.66;50.83;101762.25;5108852;27;46736;-47
2021/06/12 08:44:00;;;;;;;;;5.67;5.67;;;;;23.69;50.33;101761.19;5104947;27;45596;-47
2021/06/12 08:46:27;;;;;;;;;6.33;6.33;;;;;23.66;50.27;101764.09;5103262;27;45732;-45
2021/06/12 08:48:53;;;;;;;;;6.33;5.67;;;;;23.63;50.58;101765.16;5102314;27;45479;-46
2021/06/12 08:51:19;;;;;;;;;7.00;5.00;;;;;23.62;50.71;101771.50;5101365;27;47444;-44
2021/06/12 08:53:44;;;;;;;;;7.00;7.00;;;;;23.62;50.37;101778.75;5098045;27;45935;-45
2021/06/12 08:56:10;;;;;;;;;8.50;8.50;;;;;23.60;50.73;101775.28;5102749;27;45786;-44
2021/06/12 08:58:35;;;;;;;;;9.00;9.00;;;;;23.58;50.95;101783.50;5105252;27;45546;-46
2021/06/12 09:01:01;;;;;;;;;11.00;10.33;;;;;23.63;50.60;101781.41;5104526;27;48347;-45
2021/06/12 09:03:28;;;;;;;;;10.33;9.67;;;;;23.66;50.54;101770.38;5111151;27;45814;-44
2021/06/12 09:05:56;;;;;;;;;11.25;9.50;;;;;23.63;50.59;101767.84;5105360;27;45343;-45
2021/06/12 09:08:23;;;;;;;;;9.00;9.00;;;;;23.64;50.45;101769.59;5109681;27;45636;-44
2021/06/12 09:11:03;;;;;;;;;8.00;8.00;;;;;23.66;50.64;101758.66;5109326;27;49678;-45
2021/06/12 09:13:42;;;;;;;;;13.50;9.50;;;;;23.66;50.54;101774.94;5108547;27;45795;-44
2021/06/12 09:16:30;;;;;;;;;9.25;9.25;;;;;23.67;50.71;101772.13;5132824;27;45501;-45
2021/06/12 09:19:03;;;;;;;;;12.50;11.25;;;;;23.74;50.45;101776.19;5115724;27;45556;-50
2021/06/12 09:21:32;;;;;;;;;13.75;12.00;;;;;23.83;50.39;101768.47;5113552;27;45789;-46
2021/06/12 09:23:58;;;;;;;;;10.25;9.00;;;;;23.93;50.37;101769.66;5114932;27;45666;-48
2021/06/12 09:26:48;;;;;;;;;8.50;8.50;;;;;24.04;49.94;101775.31;5104843;27;45512;-47
2021/06/12 09:29:18;;;;;;;;;11.25;9.75;;;;;24.03;49.90;101770.88;5111146;27;45674;-45
2021/06/12 09:31:49;;;;;;;;;13.75;11.50;;;;;24.02;49.87;101769.13;5109321;27;48745;-45
2021/06/12 09:34:21;;;;;;;;;11.00;8.25;;;;;24.01;49.71;101765.53;5116360;27;45848;-47
2021/06/12 09:36:47;;;;;;;;;9.25;8.75;;;;;23.98;49.84;101771.13;5106000;27;45804;-48
2021/06/12 09:39:18;;;;;;;;;11.75;11.00;;;;;24.01;49.69;101768.25;5112549;27;45557;-45
2021/06/12 09:41:46;;;;;;;;;9.25;9.25;;;;;24.03;49.83;101771.72;5119553;27;47613;-47
2021/06/12 09:44:27;;;;;;;;;10.50;10.50;;;;;24.13;49.50;101782.00;5114884;27;45348;-49
2021/06/12 09:46:53;;;;;;;;;10.00;9.25;;;;;24.18;49.35;101775.34;5109057;27;45596;-48
2021/06/12 09:49:32;;;;;;;;;10.00;8.50;;;;;24.17;49.33;101767.31;5110331;27;45807;-47
2021/06/12 09:52:13;;;;;;;;;16.00;13.50;;;;;24.13;49.52;101779.28;5099836;27;48070;-50
2021/06/12 09:54:44;;;;;;;;;8.00;8.00;;;;;24.13;49.57;101774.72;5099343;27;45724;-45
2021/06/12 09:57:12;;;;;;;;;11.00;11.00;;;;;24.20;49.43;101780.66;5111557;27;45372;-45
2021/06/12 09:59:43;;;;;;;;;13.50;12.25;;;;;24.24;49.67;101772.22;5113276;27;45411;-45
2021/06/12 10:02:10;;;;;;;;;12.00;10.00;;;;;24.27;49.69;101765.75;5108155;27;47481;-45
2021/06/12 10:04:36;;;;;;;;;11.50;10.75;;;;;24.27;49.20;101765.75;5111635;27;46010;-48
2021/06/12 10:07:02;;;;;;;;;9.50;9.50;;;;;24.27;49.35;101758.50;5107436;27;45490;-44
2021/06/12 10:09:27;;;;;;;;;9.75;8.50;;;;;24.28;49.20;101768.38;5114055;27;45429;-47
2021/06/12 10:11:54;;;;;;;;;9.00;8.75;;;;;24.30;49.12;101765.59;5110384;27;48220;-50
2021/06/12 10:14:21;;;;;;;;;9.00;9.00;;;;;24.28;49.38;101768.38;5107459;27;45475;-47
2021/06/12 10:16:47;;;;;;;;;8.75;8.75;;;;;24.30;49.02;101774.59;5118645;27;45566;-48
2021/06/12 10:19:17;;;;;;;;;9.00;8.50;;;;;24.31;48.72;101770.06;5114814;27;45641;-46
2021/06/12 10:21:43;;;;;;;;;6.25;6.25;;;;;24.29;48.92;101772.84;5106914;27;47147;-47
2021/06/12 10:24:09;;;;;;;;;9.25;8.00;;;;;24.32;49.05;101779.94;5112857;27;45242;-47
2021/06/12 10:26:36;;;;;;;;;9.25;7.75;;;;;24.33;48.76;101777.13;5111694;27;45447;-48
2021/06/12 10:29:04;;;;;;;;;8.25;8.25;;;;;24.39;48.91;101772.25;5108424;27;45415;-46
2021/06/12 10:31:34;;;;;;;;;7.00;7.00;;;;;24.44;48.88;101778.28;5108223;27;47625;-48
2021/06/12 10:34:01;;;;;;;;;9.50;9.50;;;;;24.45;48.88;101780.91;5114918;27;45841;-52
2021/06/12 10:36:32;;;;;;;;;10.75;7.75;;;;;24.50;48.69;101776.03;5107127;27;45379;-49
2021/06/12 10:38:58;;;;;;;;;8.75;8.75;;;;;24.51;48.91;101777.78;5102240;27;45490;-50
2021/06/12 10:41:28;;;;;;;;;5.00;5.00;;;;;24.51;48.65;101783.22;5110446;27;47238;-46
2021/06/12 10:44:02;;;;;;;;;5.50;3.75;;;;;24.48;48.66;101780.72;5111050;27;45761;-51
2021/06/12 10:46:32;;;;;;;;;6.25;4.50;;;;;24.48;48.66;101780.72;5103646;27;45443;-47
2021/06/12 10:49:05;;;;;;;;;4.00;3.75;;;;;24.54;49.19;101784.88;5103918;27;45768;-52
2021/06/12 10:51:31;;;;;;;;;4.25;4.25;;;;;24.62;48.86;101790.69;5101178;27;48274;-46
2021/06/12 10:54:08;;;;;;;;;7.75;6.75;;;;;24.76;48.83;101784.38;5101786;27;45512;-48
2021/06/12 10:56:41;;;;;;;;;5.50;5.50;;;;;24.82;48.31;101782.16;5101120;27;45766;-47
2021/06/12 10:59:08;;;;;;;;;4.00;4.00;;;;;24.86;48.43;101786.41;5103170;27;45625;-50
2021/06/12 11:01:34;;;;;;;;;5.00;5.00;;;;;24.89;47.86;101788.91;5112308;27;47848;-49
2021/06/12 11:04:22;;;;;;;;;6.00;6.00;;;;;24.87;47.96;101807.16;5101196;27;46186;-47
2021/06/12 11:06:54;;;;;;;;;5.00;5.00;;;;;24.86;48.28;101796.38;5108882;27;45548;-49
2021/06/12 11:09:20;;;;;;;;;6.00;4.00;;;;;24.93;48.06;101797.75;5112070;27;45877;-47
2021/06/12 11:11:49;;;;;;;;;5.75;4.00;;;;;25.02;47.94;101796.28;5100097;27;47274;-46
2021/06/12 11:14:35;;;;;;;;;4.75;4.75;;;;;25.12;48.11;101809.19;5107060;27;45429;-46
2021/06/12 11:19:33;;;;;;;;;6.00;4.75;;;;;25.34;47.36;101796.91;5109991;27;45758;-47
2021/06/12 11:22:32;;;;;;;;;4.00;3.25;;;;;25.47;47.39;101789.69;5103378;27;47393;-47
2021/06/12 11:25:12;;;;;;;;;3.00;2.00;;;;;25.61;47.15;101792.31;5107920;27;46092;-44
2021/06/12 11:27:49;;;;;;;;;4.50;4.50;;;;;25.74;47.29;101796.00;5120384;27;45656;-47
2021/06/12 11:30:18;;;;;;;;;4.75;4.25;;;;;25.87;46.68;101784.28;5099376;27;45639;-48